Time;durP1;ratioP1;P1;durP2;ratioP2;P2;SDS_P1;SDS_P2;PMS_P1;PMS_P2;Temp;Humidity;BMP_temperature;BMP_pressure;BME280_temperature;BME280_humidity;BME280_pressure;Samples;Min_cycle;Max_cycle;Signal;HPM_P1;HPM_P2
2021/12/14 00:00:21;;;;;;;13.27;8.77;;;15.80;84.70;;;;;;4140114;28;20049;-58
2021/12/14 00:02:45;;;;;;;14.45;9.80;;;15.80;84.50;;;;;;4134095;28;20400;-59
2021/12/14 00:05:08;;;;;;;13.98;9.57;;;15.70;84.90;;;;;;4142116;28;20052;-58
2021/12/14 00:07:30;;;;;;;17.45;9.68;;;15.70;84.90;;;;;;4142580;28;20054;-58
2021/12/14 00:10:00;;;;;;;11.50;9.48;;;15.70;85.20;;;;;;4128041;28;20042;-59
2021/12/14 00:12:35;;;;;;;12.68;9.45;;;15.70;85.00;;;;;;4125995;28;20049;-58
2021/12/14 00:15:03;;;;;;;16.23;8.95;;;15.70;85.00;;;;;;4127330;28;20046;-58
2021/12/14 00:17:28;;;;;;;11.65;9.43;;;15.70;85.20;;;;;;4141957;28;20490;-58
2021/12/14 00:19:52;;;;;;;12.02;9.15;;;15.70;85.40;;;;;;4128087;28;20046;-58
2021/12/14 00:22:26;;;;;;;13.25;10.63;;;15.70;85.30;;;;;;4125727;28;20046;-58
2021/12/14 00:24:47;;;;;;;12.85;9.02;;;15.70;85.40;;;;;;4126002;28;20057;-58
2021/12/14 00:27:12;;;;;;;15.30;9.98;;;15.70;85.40;;;;;;4125853;28;20057;-57
2021/12/14 00:29:37;;;;;;;11.23;9.90;;;15.70;85.30;;;;;;4137090;28;20062;-58
2021/12/14 00:32:04;;;;;;;14.50;10.50;;;15.60;85.40;;;;;;4125650;28;20129;-58
2021/12/14 00:34:36;;;;;;;13.75;8.80;;;15.60;85.40;;;;;;4127101;28;20042;-58
2021/12/14 00:36:59;;;;;;;12.15;8.98;;;15.60;86.00;;;;;;4141923;28;20050;-58
2021/12/14 00:39:21;;;;;;;11.05;9.40;;;15.60;85.50;;;;;;4132339;28;20047;-59
2021/12/14 00:41:44;;;;;;;12.63;9.90;;;15.60;85.50;;;;;;4125779;28;20050;-58
2021/12/14 00:44:08;;;;;;;12.02;8.68;;;15.60;85.30;;;;;;4111124;28;20064;-59
2021/12/14 00:46:30;;;;;;;11.15;9.18;;;15.60;85.10;;;;;;4110477;28;20057;-59
2021/12/14 00:48:53;;;;;;;14.05;9.13;;;15.60;85.20;;;;;;4130922;28;20100;-59
2021/12/14 00:51:17;;;;;;;12.20;8.93;;;15.60;85.30;;;;;;4125833;28;20074;-59
2021/12/14 00:53:41;;;;;;;13.00;9.23;;;15.60;86.30;;;;;;4111099;28;20540;-59
2021/12/14 00:56:06;;;;;;;12.85;10.00;;;15.60;85.70;;;;;;4110990;28;20049;-59
2021/12/14 00:58:29;;;;;;;14.73;9.30;;;15.60;85.60;;;;;;4129989;28;20060;-59
2021/12/14 01:00:56;;;;;;;12.25;8.90;;;15.50;85.30;;;;;;4126945;28;20043;-59
2021/12/14 01:03:19;;;;;;;9.75;8.73;;;15.50;85.10;;;;;;4142030;28;20050;-58
2021/12/14 01:05:45;;;;;;;12.70;9.60;;;15.50;85.40;;;;;;4138884;28;20061;-59
2021/12/14 01:08:11;;;;;;;11.13;9.73;;;15.50;85.30;;;;;;4111120;28;20046;-58
2021/12/14 01:10:39;;;;;;;11.00;8.82;;;15.50;85.70;;;;;;4124629;28;20042;-58
2021/12/14 01:13:05;;;;;;;11.52;8.65;;;15.50;85.60;;;;;;4124973;28;20453;-59
2021/12/14 01:15:50;;;;;;;9.95;8.60;;;15.50;86.60;;;;;;4125920;28;20050;-58
2021/12/14 01:18:17;;;;;;;16.23;9.13;;;15.60;86.70;;;;;;4140662;28;20081;-58
2021/12/14 01:20:42;;;;;;;11.48;8.13;;;15.70;86.60;;;;;;4139983;28;20053;-58
2021/12/14 01:23:15;;;;;;;10.18;8.65;;;15.70;86.30;;;;;;4141779;28;20137;-59
2021/12/14 01:25:39;;;;;;;11.25;9.68;;;15.80;85.90;;;;;;4141341;28;20053;-58
2021/12/14 01:28:04;;;;;;;12.55;8.93;;;15.80;85.50;;;;;;4127781;28;20140;-59
2021/12/14 01:30:33;;;;;;;11.30;9.10;;;15.90;85.40;;;;;;4110834;28;20047;-59
2021/12/14 01:32:56;;;;;;;15.13;9.88;;;15.90;85.10;;;;;;4124783;28;20050;-59
2021/12/14 01:35:27;;;;;;;13.38;9.25;;;15.90;85.10;;;;;;4115826;28;20596;-58
2021/12/14 01:38:01;;;;;;;12.23;9.85;;;15.90;85.00;;;;;;4124503;28;20052;-58
2021/12/14 01:40:52;;;;;;;12.55;9.23;;;15.90;84.80;;;;;;4128529;28;20560;-58
2021/12/14 01:43:14;;;;;;;12.40;8.02;;;15.90;84.90;;;;;;4129469;28;20050;-59
2021/12/14 01:45:36;;;;;;;11.82;10.02;;;15.90;85.00;;;;;;4122073;28;20059;-59
2021/12/14 01:48:00;;;;;;;12.73;9.38;;;15.90;84.80;;;;;;4112934;28;20487;-59
2021/12/14 01:50:41;;;;;;;12.65;9.10;;;15.90;84.90;;;;;;4127109;28;20548;-59
2021/12/14 01:53:07;;;;;;;14.07;9.88;;;15.90;85.00;;;;;;4127094;28;20055;-59
2021/12/14 01:55:36;;;;;;;11.32;9.07;;;15.90;85.10;;;;;;4120728;28;20109;-60
2021/12/14 01:58:01;;;;;;;13.48;9.88;;;15.80;84.80;;;;;;4129444;28;20512;-59
2021/12/14 02:00:27;;;;;;;12.77;9.88;;;15.80;84.80;;;;;;4128530;28;20113;-59
2021/12/14 02:02:50;;;;;;;13.98;9.00;;;15.80;84.70;;;;;;4144516;28;20045;-59
2021/12/14 02:05:18;;;;;;;13.13;9.70;;;15.80;85.00;;;;;;4125550;28;20051;-59
2021/12/14 02:07:42;;;;;;;13.88;9.68;;;15.90;84.90;;;;;;4113047;28;20442;-60
2021/12/14 02:10:10;;;;;;;14.27;10.32;;;15.90;84.80;;;;;;4113179;28;20058;-60
2021/12/14 02:12:33;;;;;;;13.70;9.52;;;16.00;84.70;;;;;;4127803;28;20556;-59
2021/12/14 02:15:06;;;;;;;11.77;9.57;;;16.00;84.60;;;;;;4117062;28;20050;-59
2021/12/14 02:17:28;;;;;;;11.77;9.48;;;16.00;85.10;;;;;;4128881;28;20125;-59
2021/12/14 02:19:52;;;;;;;15.68;9.95;;;16.00;84.30;;;;;;4144161;28;20081;-59
2021/12/14 02:22:17;;;;;;;13.52;10.35;;;16.00;84.30;;;;;;4128857;28;20054;-59
2021/12/14 02:24:45;;;;;;;14.93;10.23;;;16.00;84.10;;;;;;4128527;28;20132;-59
2021/12/14 02:27:08;;;;;;;13.75;9.77;;;16.00;84.00;;;;;;4141885;28;20050;-59
2021/12/14 02:29:34;;;;;;;13.60;10.93;;;16.00;84.10;;;;;;4128997;28;20065;-59
2021/12/14 02:32:03;;;;;;;16.35;11.32;;;16.00;84.00;;;;;;4129071;28;20058;-59
2021/12/14 02:34:26;;;;;;;13.65;10.38;;;16.00;84.20;;;;;;4127304;28;20050;-59
2021/12/14 02:36:49;;;;;;;16.38;11.93;;;16.00;84.60;;;;;;4128710;28;20038;-59
2021/12/14 02:39:45;;;;;;;15.82;11.10;;;16.10;84.30;;;;;;4126675;28;20046;-59
2021/12/14 02:42:10;;;;;;;18.08;12.77;;;16.20;83.90;;;;;;4112282;28;20058;-57
2021/12/14 02:44:33;;;;;;;18.30;12.38;;;16.20;83.50;;;;;;4120009;28;20046;-59
2021/12/14 02:46:58;;;;;;;16.95;12.60;;;16.30;83.20;;;;;;4125930;28;20061;-59
2021/12/14 02:49:24;;;;;;;16.77;12.10;;;16.30;83.00;;;;;;4126229;28;20046;-58
2021/12/14 02:51:49;;;;;;;17.17;11.57;;;16.30;83.00;;;;;;4111599;28;20495;-59
2021/12/14 02:54:18;;;;;;;18.13;12.50;;;16.30;83.10;;;;;;4128016;28;20054;-59
2021/12/14 02:56:45;;;;;;;19.17;12.57;;;16.30;83.00;;;;;;4128293;28;20050;-59
2021/12/14 02:59:11;;;;;;;14.85;12.52;;;16.20;83.00;;;;;;4143186;28;20046;-59
2021/12/14 03:01:34;;;;;;;16.65;12.85;;;16.20;83.10;;;;;;4141854;28;20126;-59
2021/12/14 03:04:01;;;;;;;20.67;13.25;;;16.20;83.40;;;;;;4116048;28;20047;-59
2021/12/14 03:06:25;;;;;;;15.70;12.38;;;16.20;83.40;;;;;;4125762;28;20086;-59
2021/12/14 03:09:07;;;;;;;15.70;13.43;;;16.30;83.20;;;;;;4112259;28;20497;-59
2021/12/14 03:11:31;;;;;;;18.48;13.10;;;16.30;83.00;;;;;;4125634;28;20124;-59
2021/12/14 03:13:54;;;;;;;17.33;12.45;;;16.30;82.80;;;;;;4126939;28;20454;-60
2021/12/14 03:16:21;;;;;;;21.75;13.30;;;16.30;82.80;;;;;;4127925;28;20050;-59
2021/12/14 03:18:47;;;;;;;17.08;13.90;;;16.30;82.60;;;;;;4126683;28;20886;-59
2021/12/14 03:21:13;;;;;;;18.70;12.85;;;16.30;82.50;;;;;;4112453;28;20080;-59
2021/12/14 03:23:40;;;;;;;19.50;13.93;;;16.30;82.60;;;;;;4137675;28;20049;-59
2021/12/14 03:26:04;;;;;;;18.05;12.82;;;16.30;82.70;;;;;;4143473;28;20544;-59
2021/12/14 03:28:30;;;;;;;17.20;12.68;;;16.30;82.90;;;;;;4128408;28;20100;-59
2021/12/14 03:31:01;;;;;;;17.95;13.50;;;16.30;82.90;;;;;;4128025;28;20445;-59
2021/12/14 03:33:31;;;;;;;19.00;14.05;;;16.30;82.90;;;;;;4115848;28;20057;-59
2021/12/14 03:35:57;;;;;;;17.27;12.80;;;16.30;82.80;;;;;;4111920;28;20073;-59
2021/12/14 03:38:23;;;;;;;18.75;14.40;;;16.30;82.60;;;;;;4125296;28;20076;-59
2021/12/14 03:40:56;;;;;;;21.83;14.65;;;16.30;82.60;;;;;;4111612;28;20047;-59
2021/12/14 03:43:18;;;;;;;19.10;13.40;;;16.30;82.60;;;;;;4122442;28;20043;-59
2021/12/14 03:45:42;;;;;;;17.27;13.02;;;16.30;82.60;;;;;;4142491;28;20637;-59
2021/12/14 03:48:06;;;;;;;17.88;13.52;;;16.30;82.50;;;;;;4128026;28;20047;-59
2021/12/14 03:50:33;;;;;;;25.63;14.25;;;16.30;82.50;;;;;;4126280;28;20479;-59
2021/12/14 03:52:55;;;;;;;18.00;13.32;;;16.30;82.60;;;;;;4116487;28;20047;-59
2021/12/14 03:55:22;;;;;;;21.35;15.25;;;16.30;82.70;;;;;;4124398;28;20049;-58
2021/12/14 03:57:45;;;;;;;19.13;14.77;;;16.30;82.80;;;;;;4107260;28;20074;-59
2021/12/14 04:00:15;;;;;;;21.88;14.52;;;16.30;82.70;;;;;;4094715;28;20114;-59
2021/12/14 04:02:44;;;;;;;20.15;13.48;;;16.40;82.20;;;;;;4106377;28;20638;-59
2021/12/14 04:05:11;;;;;;;19.52;14.95;;;16.40;82.10;;;;;;4108813;28;20054;-59
2021/12/14 04:07:37;;;;;;;22.42;14.93;;;16.50;82.00;;;;;;4108106;28;20055;-58
2021/12/14 04:10:15;;;;;;;20.48;15.13;;;16.50;81.70;;;;;;4094008;28;20047;-59
2021/12/14 04:12:40;;;;;;;19.85;13.98;;;16.50;81.60;;;;;;4107243;28;20043;-58
2021/12/14 04:15:02;;;;;;;17.13;13.40;;;16.50;81.50;;;;;;4093983;28;20063;-59
2021/12/14 04:17:28;;;;;;;19.75;14.57;;;16.50;81.60;;;;;;4108304;28;20132;-58
2021/12/14 04:19:52;;;;;;;21.58;16.05;;;16.40;81.60;;;;;;4094614;28;20066;-58
2021/12/14 04:22:17;;;;;;;19.05;14.70;;;16.40;81.90;;;;;;4107824;28;20047;-58
2021/12/14 04:24:43;;;;;;;20.13;13.40;;;16.40;81.80;;;;;;4082152;28;20147;-58
2021/12/14 04:27:17;;;;;;;20.05;14.98;;;16.40;81.80;;;;;;4093677;28;20114;-58
2021/12/14 04:29:40;;;;;;;21.75;15.48;;;16.40;81.70;;;;;;4107267;28;20514;-58
2021/12/14 04:32:04;;;;;;;20.27;15.90;;;16.40;81.80;;;;;;4107657;28;20094;-58
2021/12/14 04:34:30;;;;;;;20.50;15.23;;;16.40;81.90;;;;;;4108208;28;20165;-59
2021/12/14 04:36:55;;;;;;;20.83;15.52;;;16.40;81.80;;;;;;4125139;28;20042;-58
2021/12/14 04:39:35;;;;;;;22.83;14.63;;;16.40;81.90;;;;;;4125357;28;20125;-59
2021/12/14 04:52:56;;;;;;;22.10;15.35;;;16.40;82.20;;;;;;4124881;28;20050;-58
2021/12/14 04:55:19;;;;;;;18.70;13.93;;;16.40;81.70;;;;;;4116249;28;20554;-58
2021/12/14 04:57:46;;;;;;;19.88;14.60;;;16.50;81.70;;;;;;4111100;28;20069;-58
2021/12/14 05:00:23;;;;;;;21.75;14.98;;;16.50;81.70;;;;;;4124739;28;20062;-58
2021/12/14 05:02:57;;;;;;;21.20;15.82;;;16.50;81.30;;;;;;4110680;28;20074;-57
2021/12/14 05:05:30;;;;;;;19.45;14.85;;;16.60;81.50;;;;;;4111386;28;20538;-58
2021/12/14 05:10:37;;;;;;;22.48;15.75;;;16.60;81.10;;;;;;4124406;28;20105;-59
2021/12/14 05:12:59;;;;;;;20.30;15.02;;;16.60;81.20;;;;;;4139693;28;20050;-58
2021/12/14 05:15:25;;;;;;;20.33;15.13;;;16.60;80.80;;;;;;4128551;28;20347;-58
2021/12/14 05:17:51;;;;;;;21.77;15.15;;;16.60;80.50;;;;;;4126840;28;20074;-58
2021/12/14 05:20:15;;;;;;;22.60;15.63;;;16.60;80.50;;;;;;4127887;28;20081;-58
2021/12/14 05:22:42;;;;;;;20.33;14.75;;;16.50;80.40;;;;;;4113984;28;20094;-59
2021/12/14 05:25:08;;;;;;;24.17;15.15;;;16.50;80.80;;;;;;4128293;28;20058;-58
2021/12/14 05:27:34;;;;;;;19.73;14.88;;;16.40;80.80;;;;;;4114177;28;20043;-58
2021/12/14 05:30:06;;;;;;;23.88;16.40;;;16.40;80.80;;;;;;4129659;28;20050;-58
2021/12/14 05:32:33;;;;;;;20.85;15.15;;;16.50;80.70;;;;;;4127375;28;20141;-58
2021/12/14 05:34:56;;;;;;;21.60;15.65;;;16.40;80.70;;;;;;4113840;28;20384;-58
2021/12/14 05:37:20;;;;;;;24.33;15.77;;;16.40;80.60;;;;;;4113926;28;20047;-59
2021/12/14 05:39:51;;;;;;;23.50;16.10;;;16.40;80.60;;;;;;4113629;28;20491;-58
2021/12/14 05:45:26;;;;;;;21.85;15.05;;;16.40;81.10;;;;;;4113963;28;20113;-58
2021/12/14 05:47:52;;;;;;;22.40;15.63;;;16.40;81.00;;;;;;4117617;28;20113;-58
2021/12/14 05:50:24;;;;;;;22.38;15.60;;;16.50;80.60;;;;;;4129715;28;20042;-57
2021/12/14 05:52:51;;;;;;;22.23;15.27;;;16.50;80.30;;;;;;4129039;28;20046;-59
2021/12/14 05:55:16;;;;;;;20.75;14.65;;;16.50;80.20;;;;;;4144616;28;20505;-58
2021/12/14 05:57:39;;;;;;;20.77;14.95;;;16.50;80.10;;;;;;4127502;28;20054;-59
2021/12/14 06:00:02;;;;;;;20.92;15.10;;;16.50;80.00;;;;;;4128531;28;20514;-58
2021/12/14 06:02:26;;;;;;;20.90;15.38;;;16.50;80.20;;;;;;4129156;28;20053;-58
2021/12/14 06:04:54;;;;;;;19.88;15.45;;;16.50;80.10;;;;;;4123496;28;20514;-59
2021/12/14 06:07:18;;;;;;;24.90;16.65;;;16.50;80.00;;;;;;4128299;28;20034;-59
2021/12/14 06:09:44;;;;;;;18.38;14.45;;;16.50;80.20;;;;;;4113974;28;20062;-59
2021/12/14 06:12:16;;;;;;;21.40;15.38;;;16.50;80.20;;;;;;4113628;28;20082;-60
2021/12/14 06:14:51;;;;;;;21.33;15.50;;;16.40;81.10;;;;;;4113332;28;20372;-60
2021/12/14 06:17:14;;;;;;;22.42;16.38;;;16.40;80.40;;;;;;4114138;28;20050;-60
2021/12/14 06:19:40;;;;;;;23.13;15.95;;;16.40;80.60;;;;;;4129484;28;20058;-59
2021/12/14 06:22:10;;;;;;;25.50;16.33;;;16.30;81.00;;;;;;4123276;28;20038;-59
2021/12/14 06:24:34;;;;;;;22.85;15.77;;;16.30;81.00;;;;;;4126919;28;20114;-59
2021/12/14 06:27:00;;;;;;;21.75;15.95;;;16.40;80.90;;;;;;4128158;28;20125;-59
2021/12/14 06:29:26;;;;;;;21.90;16.55;;;16.40;80.70;;;;;;4127778;28;20050;-59
2021/12/14 06:31:51;;;;;;;23.70;17.05;;;16.50;80.40;;;;;;4113675;28;20047;-59
2021/12/14 06:34:21;;;;;;;23.48;17.50;;;16.50;80.20;;;;;;4127372;28;20049;-58
2021/12/14 06:37:42;;;;;;;21.45;16.85;;;16.50;80.10;;;;;;4127543;28;20050;-59
2021/12/14 06:40:17;;;;;;;21.73;16.33;;;16.50;79.80;;;;;;4112308;28;20133;-59
2021/12/14 06:42:42;;;;;;;22.60;16.80;;;16.40;80.10;;;;;;4127800;28;20132;-59
2021/12/14 06:45:07;;;;;;;22.98;15.80;;;16.40;80.40;;;;;;4112775;28;20055;-59
2021/12/14 06:47:32;;;;;;;24.73;17.15;;;16.40;80.50;;;;;;4117305;28;20059;-58
2021/12/14 06:49:54;;;;;;;25.00;17.70;;;16.30;80.60;;;;;;4144001;28;20117;-58
2021/12/14 06:52:17;;;;;;;23.95;17.58;;;16.30;81.90;;;;;;4128917;28;20094;-59
2021/12/14 06:54:50;;;;;;;23.67;18.30;;;16.30;80.80;;;;;;4118059;28;20046;-59
2021/12/14 06:57:41;;;;;;;23.58;16.80;;;16.30;80.90;;;;;;4133421;28;20683;-59
2021/12/14 07:00:12;;;;;;;24.83;17.55;;;16.40;81.40;;;;;;4128502;28;20573;-59
2021/12/14 07:02:50;;;;;;;22.52;15.98;;;16.40;81.30;;;;;;4127951;28;20433;-60
2021/12/14 07:05:38;;;;;;;22.77;17.55;;;16.40;81.30;;;;;;4142848;28;20072;-60
2021/12/14 07:08:09;;;;;;;25.13;19.13;;;16.30;81.40;;;;;;4142367;28;20057;-60
2021/12/14 07:10:35;;;;;;;29.90;19.83;;;16.40;81.10;;;;;;4123256;28;20046;-60
2021/12/14 07:12:57;;;;;;;27.38;17.83;;;16.40;81.90;;;;;;4136748;28;20500;-61
2021/12/14 07:15:22;;;;;;;23.38;17.35;;;16.40;80.70;;;;;;4128762;28;20050;-61
2021/12/14 07:17:52;;;;;;;26.58;18.48;;;16.50;80.60;;;;;;4134987;28;20050;-61
2021/12/14 07:20:29;;;;;;;27.10;17.85;;;16.50;80.50;;;;;;4133618;28;20572;-60
2021/12/14 07:22:53;;;;;;;27.48;19.02;;;16.50;80.20;;;;;;4143310;28;20490;-59
2021/12/14 07:25:21;;;;;;;26.13;18.48;;;16.60;81.00;;;;;;4141857;28;20042;-59
2021/12/14 07:27:43;;;;;;;24.40;16.92;;;16.70;79.80;;;;;;4142813;28;20056;-60
2021/12/14 07:30:19;;;;;;;24.55;18.75;;;16.70;79.30;;;;;;4143139;28;20132;-60
2021/12/14 07:32:46;;;;;;;26.88;18.63;;;16.80;79.00;;;;;;4143529;28;20111;-60
2021/12/14 07:35:27;;;;;;;25.90;19.00;;;16.80;79.00;;;;;;4143125;28;20116;-60
2021/12/14 07:37:50;;;;;;;26.33;18.48;;;16.80;78.90;;;;;;4142577;28;20034;-60
2021/12/14 07:40:13;;;;;;;25.55;18.98;;;16.70;79.00;;;;;;4138685;28;20046;-60
2021/12/14 07:42:36;;;;;;;23.90;19.25;;;16.70;79.20;;;;;;4133630;28;20502;-60
2021/12/14 07:44:59;;;;;;;26.40;19.02;;;16.60;79.30;;;;;;4128000;28;20101;-60
2021/12/14 07:47:21;;;;;;;26.25;19.38;;;16.60;79.40;;;;;;4142653;28;20044;-60
2021/12/14 07:49:46;;;;;;;24.45;17.02;;;16.60;79.70;;;;;;4127252;28;20054;-59
2021/12/14 07:52:15;;;;;;;27.33;19.75;;;16.50;79.80;;;;;;4135244;28;20039;-59
2021/12/14 07:54:40;;;;;;;27.15;18.88;;;16.40;79.90;;;;;;4135328;28;20045;-60
2021/12/14 07:57:06;;;;;;;29.70;20.48;;;16.40;80.30;;;;;;4133926;28;20534;-58
2021/12/14 07:59:31;;;;;;;26.70;20.08;;;16.40;80.50;;;;;;4126463;28;20042;-58
2021/12/14 08:02:10;;;;;;;27.65;19.40;;;16.40;80.50;;;;;;4140074;28;20041;-59
2021/12/14 08:04:34;;;;;;;34.10;21.05;;;16.40;80.40;;;;;;4139398;28;20493;-59
2021/12/14 08:06:56;;;;;;;26.92;20.25;;;16.40;80.30;;;;;;4139895;28;20545;-58
2021/12/14 08:09:44;;;;;;;32.50;19.17;;;16.50;80.20;;;;;;4140007;28;20171;-59
2021/12/14 08:12:07;;;;;;;28.75;20.02;;;16.50;80.00;;;;;;4139732;28;20472;-59
2021/12/14 08:14:33;;;;;;;30.92;21.88;;;16.50;80.00;;;;;;4139271;28;20387;-59
2021/12/14 08:16:58;;;;;;;31.10;21.00;;;16.50;80.70;;;;;;4139953;28;20073;-59
2021/12/14 08:19:33;;;;;;;31.17;21.23;;;16.50;79.70;;;;;;4139576;28;20425;-61
2021/12/14 08:21:56;;;;;;;30.38;21.55;;;16.50;79.60;;;;;;4139700;28;20084;-58
2021/12/14 08:24:19;;;;;;;31.58;20.98;;;16.50;79.70;;;;;;4140075;28;20080;-59
2021/12/14 08:26:45;;;;;;;27.27;20.83;;;16.50;80.00;;;;;;4139581;28;20049;-59
2021/12/14 08:29:12;;;;;;;28.60;19.75;;;16.50;79.80;;;;;;4138810;28;20054;-59
2021/12/14 08:31:37;;;;;;;29.80;20.33;;;16.60;79.50;;;;;;4125015;28;20121;-59
2021/12/14 08:34:01;;;;;;;28.23;20.65;;;16.60;79.20;;;;;;4138020;28;20141;-59
2021/12/14 08:36:24;;;;;;;33.47;23.40;;;16.70;79.00;;;;;;4137977;28;20060;-59
2021/12/14 08:38:46;;;;;;;29.08;20.13;;;16.70;78.80;;;;;;4139293;28;20125;-58
2021/12/14 08:41:18;;;;;;;31.00;21.67;;;16.70;78.80;;;;;;4137914;28;20049;-58
2021/12/14 08:43:48;;;;;;;27.33;20.95;;;16.60;78.80;;;;;;4138181;28;20061;-58
2021/12/14 08:46:13;;;;;;;30.60;22.15;;;16.60;78.90;;;;;;4139571;28;20406;-58
2021/12/14 08:48:39;;;;;;;29.63;21.33;;;16.60;79.10;;;;;;4138381;28;20084;-58
2021/12/14 08:51:13;;;;;;;38.10;21.42;;;16.50;79.20;;;;;;4142308;28;20165;-58
2021/12/14 08:53:37;;;;;;;32.42;22.30;;;16.50;79.40;;;;;;4142331;28;20147;-59
2021/12/14 08:56:01;;;;;;;30.88;21.88;;;16.40;79.60;;;;;;4142733;28;20056;-58
2021/12/14 08:58:26;;;;;;;33.50;21.73;;;16.40;79.70;;;;;;4142404;28;20050;-59
2021/12/14 09:00:53;;;;;;;31.55;21.58;;;16.30;79.90;;;;;;4142874;28;20058;-59
2021/12/14 09:03:23;;;;;;;32.55;21.80;;;16.30;80.20;;;;;;4141648;28;20049;-59
2021/12/14 09:05:49;;;;;;;36.83;23.52;;;16.20;80.30;;;;;;4142140;28;20079;-59
2021/12/14 09:08:11;;;;;;;29.92;20.88;;;16.20;80.60;;;;;;4142844;28;20059;-59
2021/12/14 09:10:37;;;;;;;28.05;21.25;;;16.10;80.70;;;;;;4142649;28;20457;-59
2021/12/14 09:13:04;;;;;;;30.85;21.85;;;16.10;80.90;;;;;;4142972;28;20050;-59
2021/12/14 09:15:31;;;;;;;30.20;21.40;;;16.10;80.90;;;;;;4142231;28;20057;-59
2021/12/14 09:17:56;;;;;;;35.78;22.77;;;16.00;81.20;;;;;;4142386;28;20052;-59
2021/12/14 09:20:22;;;;;;;32.17;22.67;;;16.00;81.40;;;;;;4141932;28;20049;-59
2021/12/14 09:22:49;;;;;;;29.35;20.83;;;16.00;81.50;;;;;;4142691;28;20556;-58
2021/12/14 09:25:14;;;;;;;33.60;22.85;;;15.90;81.60;;;;;;4142846;28;20053;-58
2021/12/14 09:27:36;;;;;;;34.88;22.58;;;15.90;81.80;;;;;;4142896;28;20098;-59
2021/12/14 09:29:58;;;;;;;35.30;23.20;;;15.90;81.90;;;;;;4141994;28;20493;-58
2021/12/14 09:32:27;;;;;;;35.42;22.52;;;15.90;82.10;;;;;;4123691;28;20514;-58
2021/12/14 09:34:49;;;;;;;36.38;23.27;;;15.80;82.10;;;;;;4142011;28;20053;-58
2021/12/14 09:37:14;;;;;;;37.40;23.00;;;15.80;82.20;;;;;;4141091;28;20576;-58
2021/12/14 09:39:39;;;;;;;32.85;23.58;;;15.80;82.30;;;;;;4141120;28;20057;-59
2021/12/14 09:42:05;;;;;;;40.25;24.40;;;15.80;82.40;;;;;;4141751;28;20490;-58
2021/12/14 09:44:30;;;;;;;37.00;24.05;;;15.70;82.40;;;;;;4142232;28;20054;-58
2021/12/14 09:46:55;;;;;;;36.95;23.92;;;15.70;82.40;;;;;;4141272;28;20042;-59
2021/12/14 09:49:23;;;;;;;37.70;24.58;;;15.70;82.60;;;;;;4139855;28;20061;-59
2021/12/14 09:51:48;;;;;;;36.35;24.42;;;15.70;83.40;;;;;;4141580;28;20081;-59
2021/12/14 09:54:13;;;;;;;36.05;22.63;;;15.70;82.70;;;;;;4142830;28;20062;-59
2021/12/14 09:56:39;;;;;;;36.53;22.15;;;15.60;82.80;;;;;;4141741;28;20133;-60
2021/12/14 09:59:03;;;;;;;35.03;22.83;;;15.60;82.90;;;;;;4140452;28;20474;-59
2021/12/14 10:01:29;;;;;;;35.45;22.90;;;15.60;83.00;;;;;;4141469;28;20851;-58
2021/12/14 10:03:56;;;;;;;40.72;24.17;;;15.60;83.00;;;;;;4142215;28;20049;-57
2021/12/14 10:06:25;;;;;;;37.80;23.50;;;15.50;83.00;;;;;;4140552;28;20049;-58
2021/12/14 10:08:53;;;;;;;37.83;24.48;;;15.50;83.10;;;;;;4141775;28;20153;-58
2021/12/14 10:11:25;;;;;;;33.00;22.45;;;15.50;83.10;;;;;;4142019;28;20050;-58
2021/12/14 10:13:47;;;;;;;32.25;22.38;;;15.50;83.20;;;;;;4140862;28;20133;-58
2021/12/14 10:16:10;;;;;;;33.05;21.42;;;15.50;83.30;;;;;;4130745;28;20094;-57
2021/12/14 10:18:35;;;;;;;34.33;23.08;;;15.50;83.30;;;;;;4141868;28;20042;-58
2021/12/14 10:21:02;;;;;;;34.78;22.13;;;15.50;83.40;;;;;;4141717;28;20058;-58
2021/12/14 10:23:27;;;;;;;33.95;23.30;;;15.50;83.30;;;;;;4121241;28;20956;-57
2021/12/14 10:25:50;;;;;;;35.03;21.40;;;15.40;83.40;;;;;;4141817;28;20045;-58
2021/12/14 10:28:13;;;;;;;31.55;20.83;;;15.40;83.50;;;;;;4141414;28;20445;-58
2021/12/14 10:30:39;;;;;;;30.92;21.25;;;15.40;83.50;;;;;;4141162;28;20665;-59
2021/12/14 10:33:02;;;;;;;30.63;20.33;;;15.40;83.50;;;;;;4141811;28;20120;-58
2021/12/14 10:35:32;;;;;;;34.53;22.63;;;15.40;83.70;;;;;;4141730;28;20104;-59
2021/12/14 10:37:59;;;;;;;35.20;21.98;;;15.40;83.80;;;;;;4141251;28;20072;-58
2021/12/14 10:43:16;;;;;;;28.05;19.55;;;15.30;84.20;;;;;;4140600;28;20049;-58
2021/12/14 10:45:40;;;;;;;28.17;19.15;;;15.40;84.40;;;;;;4141412;28;20065;-59
2021/12/14 10:48:03;;;;;;;27.90;20.50;;;15.50;84.30;;;;;;4141520;28;20508;-59
2021/12/14 10:50:28;;;;;;;27.35;19.30;;;15.50;83.90;;;;;;4139971;28;20045;-58
2021/12/14 10:52:54;;;;;;;31.02;18.98;;;15.60;83.50;;;;;;4141095;28;20149;-59
2021/12/14 10:55:19;;;;;;;27.88;19.83;;;15.70;83.30;;;;;;4141027;28;20438;-59
2021/12/14 10:57:42;;;;;;;30.80;20.02;;;15.70;83.10;;;;;;4140339;28;20085;-59
2021/12/14 11:00:09;;;;;;;26.75;19.15;;;15.70;82.90;;;;;;4140548;28;20046;-60
2021/12/14 11:02:39;;;;;;;28.45;19.40;;;15.80;82.80;;;;;;4138783;28;20128;-59
2021/12/14 11:05:01;;;;;;;28.35;18.70;;;15.80;82.80;;;;;;4141066;28;20058;-59
2021/12/14 11:07:26;;;;;;;27.20;18.13;;;15.70;82.90;;;;;;4141225;28;20439;-59
2021/12/14 11:09:53;;;;;;;27.67;19.10;;;15.80;84.00;;;;;;4140905;28;20053;-59
2021/12/14 11:12:22;;;;;;;28.42;19.45;;;15.70;83.20;;;;;;4140723;28;20073;-59
2021/12/14 11:14:49;;;;;;;29.90;19.58;;;15.80;83.40;;;;;;4140677;28;20057;-59
2021/12/14 11:19:59;;;;;;;24.90;19.23;;;15.80;83.60;;;;;;4140579;28;20438;-59
2021/12/14 11:22:24;;;;;;;24.92;17.67;;;15.80;83.70;;;;;;4139789;28;20397;-59
2021/12/14 11:24:50;;;;;;;26.05;17.67;;;15.80;84.10;;;;;;4125319;28;20055;-57
2021/12/14 11:27:15;;;;;;;24.50;18.02;;;15.80;84.30;;;;;;4140502;28;20057;-60
2021/12/14 11:29:38;;;;;;;22.92;16.73;;;15.80;84.50;;;;;;4140176;28;20054;-58
2021/12/14 11:32:03;;;;;;;23.55;16.88;;;15.80;84.70;;;;;;4140207;28;20104;-60
2021/12/14 11:34:31;;;;;;;25.65;17.90;;;15.90;84.50;;;;;;4140838;28;20500;-61
2021/12/14 11:36:56;;;;;;;24.60;17.30;;;15.90;84.00;;;;;;4139217;28;20128;-57
2021/12/14 11:39:27;;;;;;;22.92;16.10;;;15.90;83.70;;;;;;4125603;28;20507;-59
2021/12/14 11:41:51;;;;;;;21.45;16.08;;;16.00;83.50;;;;;;4139623;28;20144;-57
2021/12/14 11:44:19;;;;;;;26.45;17.17;;;16.00;83.40;;;;;;4139767;28;20382;-58
2021/12/14 11:47:00;;;;;;;23.38;16.45;;;16.00;83.20;;;;;;4139940;28;20137;-58
2021/12/14 11:49:38;;;;;;;23.48;15.35;;;16.00;82.90;;;;;;4122910;28;20153;-58
2021/12/14 11:52:00;;;;;;;24.02;16.40;;;16.00;83.10;;;;;;4140442;28;20054;-57
2021/12/14 11:54:23;;;;;;;23.55;15.48;;;16.00;83.10;;;;;;4139908;28;20046;-57
2021/12/14 11:56:45;;;;;;;22.38;16.25;;;15.90;83.10;;;;;;4139841;28;20049;-57
2021/12/14 11:59:09;;;;;;;22.38;16.52;;;15.90;83.20;;;;;;4140343;28;20141;-57
2021/12/14 12:01:34;;;;;;;21.38;16.00;;;15.90;83.30;;;;;;4140013;28;20069;-60
2021/12/14 12:04:00;;;;;;;21.20;15.90;;;15.90;83.40;;;;;;4139748;28;20050;-60
2021/12/14 12:06:46;;;;;;;21.38;15.70;;;15.80;83.40;;;;;;4124050;28;20053;-60
2021/12/14 12:09:30;;;;;;;24.20;15.75;;;15.80;83.50;;;;;;4139319;28;20069;-58
2021/12/14 12:11:55;;;;;;;22.20;16.15;;;15.80;83.60;;;;;;4139387;28;20489;-60
2021/12/14 12:14:27;;;;;;;22.25;16.10;;;15.70;83.70;;;;;;4139439;28;20062;-60
2021/12/14 12:16:51;;;;;;;24.00;16.52;;;15.70;83.80;;;;;;4138369;28;20041;-59
2021/12/14 12:19:16;;;;;;;21.98;16.63;;;15.70;84.00;;;;;;4140299;28;20120;-60
2021/12/14 12:21:42;;;;;;;21.08;15.75;;;15.70;84.30;;;;;;4140204;28;20050;-60
2021/12/14 12:24:06;;;;;;;22.63;15.30;;;15.60;84.30;;;;;;4137666;28;20050;-60
2021/12/14 12:26:30;;;;;;;23.75;15.75;;;15.60;84.30;;;;;;4138556;28;20061;-60
2021/12/14 12:28:55;;;;;;;19.27;14.75;;;15.60;84.60;;;;;;4138506;28;20065;-59
2021/12/14 12:31:20;;;;;;;21.83;14.88;;;15.60;84.60;;;;;;4139672;28;20088;-60
2021/12/14 12:33:45;;;;;;;21.15;14.73;;;15.70;84.50;;;;;;4139461;28;20149;-58
2021/12/14 12:36:11;;;;;;;19.77;14.07;;;15.70;84.30;;;;;;4140039;28;20041;-58
2021/12/14 12:38:51;;;;;;;18.67;14.32;;;15.80;84.10;;;;;;4138450;28;20045;-58
2021/12/14 12:41:25;;;;;;;20.13;13.70;;;15.80;83.90;;;;;;4139013;28;20060;-58
2021/12/14 12:43:51;;;;;;;18.98;13.55;;;15.90;83.90;;;;;;4139632;28;20050;-60
2021/12/14 12:46:21;;;;;;;18.15;13.63;;;15.90;83.70;;;;;;4138827;28;20555;-60
2021/12/14 12:49:09;;;;;;;19.77;13.30;;;15.90;83.60;;;;;;4139415;28;20457;-59